Terminal Aerodrome Forecast
Issued by NWS Indianapolis, IN

Home | Current Version | Previous Version | Text Only | Print | Product List | Glossary On
Versions: 1 2 3 4 5 6 7 8 9 10 11 12 13 14 15 16 17 18 19 20 21 22 23 24 25 26 27 28
000
FTUS43 KIND 051100
TAFIND
TAF
KIND 051120Z 0512/0618 21007KT P6SM BKN080
     FM051600 22011G16KT P6SM BKN060
     FM060000 22008KT P6SM SCT060
     FM060200 19005KT P6SM SCT250
     FM061600 23006KT P6SM SCT060=

USA.gov is the U.S. government's official web portal to all federal, state and local government web resources and services.